sensor_id;sensor_type;location;lat;lon;timestamp;temperature;humidity
13464;DHT22;6804;48.774;9.174;2022-10-28T00:01:01;16.50;99.90
13464;DHT22;6804;48.774;9.174;2022-10-28T00:03:29;16.30;99.90
13464;DHT22;6804;48.774;9.174;2022-10-28T00:06:01;16.20;99.90
13464;DHT22;6804;48.774;9.174;2022-10-28T00:08:28;16.20;99.90
13464;DHT22;6804;48.774;9.174;2022-10-28T00:11:02;16.20;99.90
13464;DHT22;6804;48.774;9.174;2022-10-28T00:13:31;16.20;99.90
13464;DHT22;6804;48.774;9.174;2022-10-28T00:16:10;16.30;99.90
13464;DHT22;6804;48.774;9.174;2022-10-28T00:18:37;16.20;99.90
13464;DHT22;6804;48.774;9.174;2022-10-28T00:21:11;16.10;99.90
13464;DHT22;6804;48.774;9.174;2022-10-28T00:23:39;16.20;99.90
13464;DHT22;6804;48.774;9.174;2022-10-28T00:26:08;16.10;99.90
13464;DHT22;6804;48.774;9.174;2022-10-28T00:28:41;16.10;99.90
13464;DHT22;6804;48.774;9.174;2022-10-28T00:31:09;16.10;99.90
13464;DHT22;6804;48.774;9.174;2022-10-28T00:33:40;16.10;99.90
13464;DHT22;6804;48.774;9.174;2022-10-28T00:36:12;16.00;99.90
13464;DHT22;6804;48.774;9.174;2022-10-28T00:38:40;16.00;99.90
13464;DHT22;6804;48.774;9.174;2022-10-28T00:41:11;15.90;99.90
13464;DHT22;6804;48.774;9.174;2022-10-28T00:43:43;15.70;99.90
13464;DHT22;6804;48.774;9.174;2022-10-28T00:46:19;15.70;99.90
13464;DHT22;6804;48.774;9.174;2022-10-28T00:48:59;15.70;99.90
13464;DHT22;6804;48.774;9.174;2022-10-28T00:51:31;15.70;99.90
13464;DHT22;6804;48.774;9.174;2022-10-28T00:53:59;15.80;99.90
13464;DHT22;6804;48.774;9.174;2022-10-28T00:56:31;15.90;99.90
13464;DHT22;6804;48.774;9.174;2022-10-28T00:59:03;15.90;99.90
13464;DHT22;6804;48.774;9.174;2022-10-28T01:01:33;16.00;99.90
13464;DHT22;6804;48.774;9.174;2022-10-28T01:04:00;16.00;99.90
13464;DHT22;6804;48.774;9.174;2022-10-28T01:06:30;16.00;99.90
13464;DHT22;6804;48.774;9.174;2022-10-28T01:09:01;16.10;99.90
13464;DHT22;6804;48.774;9.174;2022-10-28T01:11:44;16.10;99.90
13464;DHT22;6804;48.774;9.174;2022-10-28T01:14:26;16.10;99.90
13464;DHT22;6804;48.774;9.174;2022-10-28T01:17:22;16.00;99.90
13464;DHT22;6804;48.774;9.174;2022-10-28T01:22:54;16.00;99.90
13464;DHT22;6804;48.774;9.174;2022-10-28T01:25:35;16.00;99.90
13464;DHT22;6804;48.774;9.174;2022-10-28T01:28:34;16.10;99.90
13464;DHT22;6804;48.774;9.174;2022-10-28T01:31:24;16.10;99.90
13464;DHT22;6804;48.774;9.174;2022-10-28T01:34:01;16.20;99.90
13464;DHT22;6804;48.774;9.174;2022-10-28T01:36:37;16.20;99.90
13464;DHT22;6804;48.774;9.174;2022-10-28T01:39:12;16.30;99.90
13464;DHT22;6804;48.774;9.174;2022-10-28T01:41:47;16.20;99.90
13464;DHT22;6804;48.774;9.174;2022-10-28T01:44:23;16.10;99.90
13464;DHT22;6804;48.774;9.174;2022-10-28T01:46:58;16.10;99.90
13464;DHT22;6804;48.774;9.174;2022-10-28T01:49:32;16.10;99.90
13464;DHT22;6804;48.774;9.174;2022-10-28T01:52:07;16.10;99.90
13464;DHT22;6804;48.774;9.174;2022-10-28T01:54:37;16.10;99.90
13464;DHT22;6804;48.774;9.174;2022-10-28T01:57:06;16.10;99.90
13464;DHT22;6804;48.774;9.174;2022-10-28T01:59:36;16.10;99.90
13464;DHT22;6804;48.774;9.174;2022-10-28T02:02:05;16.10;99.90
13464;DHT22;6804;48.774;9.174;2022-10-28T02:04:33;16.10;99.90
13464;DHT22;6804;48.774;9.174;2022-10-28T02:07:00;16.10;99.90
13464;DHT22;6804;48.774;9.174;2022-10-28T02:09:36;16.10;99.90
13464;DHT22;6804;48.774;9.174;2022-10-28T02:12:26;16.10;99.90
13464;DHT22;6804;48.774;9.174;2022-10-28T02:20:44;16.00;99.90
13464;DHT22;6804;48.774;9.174;2022-10-28T02:23:23;16.00;99.90
13464;DHT22;6804;48.774;9.174;2022-10-28T02:25:56;16.10;99.90
13464;DHT22;6804;48.774;9.174;2022-10-28T02:28:38;16.10;99.90
13464;DHT22;6804;48.774;9.174;2022-10-28T02:31:11;16.00;99.90
13464;DHT22;6804;48.774;9.174;2022-10-28T02:33:47;16.00;99.90
13464;DHT22;6804;48.774;9.174;2022-10-28T02:36:21;15.90;99.90
13464;DHT22;6804;48.774;9.174;2022-10-28T02:38:51;15.90;99.90
13464;DHT22;6804;48.774;9.174;2022-10-28T02:41:25;15.80;99.90
13464;DHT22;6804;48.774;9.174;2022-10-28T02:43:59;15.60;99.90
13464;DHT22;6804;48.774;9.174;2022-10-28T02:46:29;15.50;99.90
13464;DHT22;6804;48.774;9.174;2022-10-28T02:49:04;15.50;99.90
13464;DHT22;6804;48.774;9.174;2022-10-28T02:51:36;15.50;99.90
13464;DHT22;6804;48.774;9.174;2022-10-28T02:54:09;15.50;99.90
13464;DHT22;6804;48.774;9.174;2022-10-28T02:56:40;15.50;99.90
13464;DHT22;6804;48.774;9.174;2022-10-28T02:59:10;15.50;99.90
13464;DHT22;6804;48.774;9.174;2022-10-28T03:01:38;15.40;99.90
13464;DHT22;6804;48.774;9.174;2022-10-28T03:04:07;15.30;99.90
13464;DHT22;6804;48.774;9.174;2022-10-28T03:06:34;15.20;99.90
13464;DHT22;6804;48.774;9.174;2022-10-28T03:09:02;15.20;99.90
13464;DHT22;6804;48.774;9.174;2022-10-28T03:11:38;15.20;99.90
13464;DHT22;6804;48.774;9.174;2022-10-28T03:14:05;15.30;99.90
13464;DHT22;6804;48.774;9.174;2022-10-28T03:16:32;15.30;99.90
13464;DHT22;6804;48.774;9.174;2022-10-28T03:19:00;15.20;99.90
13464;DHT22;6804;48.774;9.174;2022-10-28T03:21:29;15.30;99.90
13464;DHT22;6804;48.774;9.174;2022-10-28T03:23:59;15.40;99.90
13464;DHT22;6804;48.774;9.174;2022-10-28T03:26:36;15.40;99.90
13464;DHT22;6804;48.774;9.174;2022-10-28T03:29:06;15.30;99.90
13464;DHT22;6804;48.774;9.174;2022-10-28T03:31:33;15.30;99.90
13464;DHT22;6804;48.774;9.174;2022-10-28T03:34:01;15.30;99.90
13464;DHT22;6804;48.774;9.174;2022-10-28T03:36:35;15.30;99.90
13464;DHT22;6804;48.774;9.174;2022-10-28T03:39:02;15.30;99.90
13464;DHT22;6804;48.774;9.174;2022-10-28T03:41:30;15.40;99.90
13464;DHT22;6804;48.774;9.174;2022-10-28T03:43:57;15.40;99.90
13464;DHT22;6804;48.774;9.174;2022-10-28T03:46:24;15.50;99.90
13464;DHT22;6804;48.774;9.174;2022-10-28T03:48:51;15.40;99.90
13464;DHT22;6804;48.774;9.174;2022-10-28T03:51:19;15.40;99.90
13464;DHT22;6804;48.774;9.174;2022-10-28T03:53:47;15.30;99.90
13464;DHT22;6804;48.774;9.174;2022-10-28T03:56:14;15.10;99.90
13464;DHT22;6804;48.774;9.174;2022-10-28T03:58:42;15.10;99.90
13464;DHT22;6804;48.774;9.174;2022-10-28T04:01:09;15.10;99.90
13464;DHT22;6804;48.774;9.174;2022-10-28T04:03:36;15.10;99.90
13464;DHT22;6804;48.774;9.174;2022-10-28T04:06:06;15.00;99.90
13464;DHT22;6804;48.774;9.174;2022-10-28T04:08:34;15.00;99.90
13464;DHT22;6804;48.774;9.174;2022-10-28T04:11:04;15.10;99.90
13464;DHT22;6804;48.774;9.174;2022-10-28T04:13:35;15.10;99.90
13464;DHT22;6804;48.774;9.174;2022-10-28T04:16:02;15.00;99.90
13464;DHT22;6804;48.774;9.174;2022-10-28T04:18:29;15.00;99.90
13464;DHT22;6804;48.774;9.174;2022-10-28T04:20:57;15.10;99.90
13464;DHT22;6804;48.774;9.174;2022-10-28T04:23:27;15.10;99.90
13464;DHT22;6804;48.774;9.174;2022-10-28T04:25:54;15.20;99.90
13464;DHT22;6804;48.774;9.174;2022-10-28T04:28:23;15.20;99.90
13464;DHT22;6804;48.774;9.174;2022-10-28T04:30:51;15.10;99.90
13464;DHT22;6804;48.774;9.174;2022-10-28T04:33:18;15.10;99.90
13464;DHT22;6804;48.774;9.174;2022-10-28T04:35:45;15.00;99.90
13464;DHT22;6804;48.774;9.174;2022-10-28T04:38:12;15.00;99.90
13464;DHT22;6804;48.774;9.174;2022-10-28T04:40:40;15.10;99.90
13464;DHT22;6804;48.774;9.174;2022-10-28T04:43:08;15.10;99.90
13464;DHT22;6804;48.774;9.174;2022-10-28T04:45:38;15.00;99.90
13464;DHT22;6804;48.774;9.174;2022-10-28T04:48:08;15.10;99.90
13464;DHT22;6804;48.774;9.174;2022-10-28T04:50:38;15.20;99.90
13464;DHT22;6804;48.774;9.174;2022-10-28T04:53:05;15.20;99.90
13464;DHT22;6804;48.774;9.174;2022-10-28T04:55:33;15.20;99.90
13464;DHT22;6804;48.774;9.174;2022-10-28T04:58:00;15.20;99.90
13464;DHT22;6804;48.774;9.174;2022-10-28T05:00:29;15.30;99.90
13464;DHT22;6804;48.774;9.174;2022-10-28T05:03:00;15.30;99.90
13464;DHT22;6804;48.774;9.174;2022-10-28T05:05:32;15.20;99.90
13464;DHT22;6804;48.774;9.174;2022-10-28T05:08:03;15.10;99.90
13464;DHT22;6804;48.774;9.174;2022-10-28T05:10:34;15.10;99.90
13464;DHT22;6804;48.774;9.174;2022-10-28T05:13:01;15.10;99.90
13464;DHT22;6804;48.774;9.174;2022-10-28T05:15:28;15.10;99.90
13464;DHT22;6804;48.774;9.174;2022-10-28T05:17:57;15.20;99.90
13464;DHT22;6804;48.774;9.174;2022-10-28T05:20:27;15.30;99.90
13464;DHT22;6804;48.774;9.174;2022-10-28T05:22:54;15.40;99.90
13464;DHT22;6804;48.774;9.174;2022-10-28T05:25:26;15.40;99.90
13464;DHT22;6804;48.774;9.174;2022-10-28T05:27:57;15.50;99.90
13464;DHT22;6804;48.774;9.174;2022-10-28T05:30:25;15.40;99.90
13464;DHT22;6804;48.774;9.174;2022-10-28T05:32:59;15.40;99.90
13464;DHT22;6804;48.774;9.174;2022-10-28T05:35:27;15.40;99.90
13464;DHT22;6804;48.774;9.174;2022-10-28T05:37:55;15.30;99.90
13464;DHT22;6804;48.774;9.174;2022-10-28T05:40:22;15.30;99.90
13464;DHT22;6804;48.774;9.174;2022-10-28T05:42:50;15.30;99.90
13464;DHT22;6804;48.774;9.174;2022-10-28T05:45:17;15.30;99.90
13464;DHT22;6804;48.774;9.174;2022-10-28T05:47:46;15.30;99.90
13464;DHT22;6804;48.774;9.174;2022-10-28T05:50:21;15.30;99.90
13464;DHT22;6804;48.774;9.174;2022-10-28T05:52:50;15.40;99.90
13464;DHT22;6804;48.774;9.174;2022-10-28T05:55:19;15.40;99.90
13464;DHT22;6804;48.774;9.174;2022-10-28T05:57:47;15.50;99.90
13464;DHT22;6804;48.774;9.174;2022-10-28T06:00:17;15.50;99.90
13464;DHT22;6804;48.774;9.174;2022-10-28T06:02:44;15.50;99.90
13464;DHT22;6804;48.774;9.174;2022-10-28T06:05:12;15.60;99.90
13464;DHT22;6804;48.774;9.174;2022-10-28T06:07:41;15.60;99.90
13464;DHT22;6804;48.774;9.174;2022-10-28T06:10:09;15.60;99.90
13464;DHT22;6804;48.774;9.174;2022-10-28T06:12:39;15.70;99.90
13464;DHT22;6804;48.774;9.174;2022-10-28T06:15:10;15.70;99.90
13464;DHT22;6804;48.774;9.174;2022-10-28T06:17:40;15.70;99.90
13464;DHT22;6804;48.774;9.174;2022-10-28T06:20:11;15.70;99.90
13464;DHT22;6804;48.774;9.174;2022-10-28T06:22:44;15.80;99.90
13464;DHT22;6804;48.774;9.174;2022-10-28T06:25:19;15.90;99.90
13464;DHT22;6804;48.774;9.174;2022-10-28T06:27:52;15.90;99.90
13464;DHT22;6804;48.774;9.174;2022-10-28T06:30:19;15.90;99.90
13464;DHT22;6804;48.774;9.174;2022-10-28T06:32:47;15.80;99.90
13464;DHT22;6804;48.774;9.174;2022-10-28T06:35:17;15.70;99.90
13464;DHT22;6804;48.774;9.174;2022-10-28T06:37:47;15.70;99.90
13464;DHT22;6804;48.774;9.174;2022-10-28T06:40:22;15.60;99.90
13464;DHT22;6804;48.774;9.174;2022-10-28T06:42:56;15.60;99.90
13464;DHT22;6804;48.774;9.174;2022-10-28T06:45:24;15.50;99.90
13464;DHT22;6804;48.774;9.174;2022-10-28T06:47:57;15.50;99.90
13464;DHT22;6804;48.774;9.174;2022-10-28T06:50:26;15.50;99.90
13464;DHT22;6804;48.774;9.174;2022-10-28T06:52:54;15.50;99.90
13464;DHT22;6804;48.774;9.174;2022-10-28T06:55:32;15.50;99.90
13464;DHT22;6804;48.774;9.174;2022-10-28T06:58:00;15.60;99.90
13464;DHT22;6804;48.774;9.174;2022-10-28T07:00:28;15.60;99.90
13464;DHT22;6804;48.774;9.174;2022-10-28T07:02:57;15.70;99.90
13464;DHT22;6804;48.774;9.174;2022-10-28T07:05:28;15.70;99.90
13464;DHT22;6804;48.774;9.174;2022-10-28T07:07:55;15.60;99.90
13464;DHT22;6804;48.774;9.174;2022-10-28T07:10:23;15.60;99.90
13464;DHT22;6804;48.774;9.174;2022-10-28T07:12:52;15.70;99.90
13464;DHT22;6804;48.774;9.174;2022-10-28T07:15:20;15.80;99.90
13464;DHT22;6804;48.774;9.174;2022-10-28T07:17:51;15.80;99.90
13464;DHT22;6804;48.774;9.174;2022-10-28T07:20:19;15.90;99.90
13464;DHT22;6804;48.774;9.174;2022-10-28T07:22:54;15.90;99.90
13464;DHT22;6804;48.774;9.174;2022-10-28T07:25:23;16.00;99.90
13464;DHT22;6804;48.774;9.174;2022-10-28T07:27:52;16.00;99.90
13464;DHT22;6804;48.774;9.174;2022-10-28T07:30:20;16.10;99.90
13464;DHT22;6804;48.774;9.174;2022-10-28T07:32:52;16.10;99.90
13464;DHT22;6804;48.774;9.174;2022-10-28T07:35:22;16.20;99.90
13464;DHT22;6804;48.774;9.174;2022-10-28T07:37:50;16.20;99.90
13464;DHT22;6804;48.774;9.174;2022-10-28T07:40:18;16.20;99.90
13464;DHT22;6804;48.774;9.174;2022-10-28T07:42:48;16.20;99.90
13464;DHT22;6804;48.774;9.174;2022-10-28T07:45:20;16.30;99.90
13464;DHT22;6804;48.774;9.174;2022-10-28T07:47:47;16.30;99.90
13464;DHT22;6804;48.774;9.174;2022-10-28T07:50:15;16.30;99.90
13464;DHT22;6804;48.774;9.174;2022-10-28T07:52:42;16.30;99.90
13464;DHT22;6804;48.774;9.174;2022-10-28T07:55:10;16.30;99.90
13464;DHT22;6804;48.774;9.174;2022-10-28T07:57:38;16.30;99.90
13464;DHT22;6804;48.774;9.174;2022-10-28T08:00:09;16.30;99.90
13464;DHT22;6804;48.774;9.174;2022-10-28T08:02:45;16.40;99.90
13464;DHT22;6804;48.774;9.174;2022-10-28T08:05:12;16.30;99.90
13464;DHT22;6804;48.774;9.174;2022-10-28T08:07:40;16.30;99.90
13464;DHT22;6804;48.774;9.174;2022-10-28T08:10:08;16.30;99.90
13464;DHT22;6804;48.774;9.174;2022-10-28T08:12:37;16.40;99.90
13464;DHT22;6804;48.774;9.174;2022-10-28T08:15:09;16.40;99.90
13464;DHT22;6804;48.774;9.174;2022-10-28T08:17:55;16.50;99.90
13464;DHT22;6804;48.774;9.174;2022-10-28T08:20:22;16.60;99.90
13464;DHT22;6804;48.774;9.174;2022-10-28T08:22:54;16.70;99.90
13464;DHT22;6804;48.774;9.174;2022-10-28T08:25:21;16.70;99.90
13464;DHT22;6804;48.774;9.174;2022-10-28T08:27:49;16.80;99.90
13464;DHT22;6804;48.774;9.174;2022-10-28T08:30:16;16.90;99.90
13464;DHT22;6804;48.774;9.174;2022-10-28T08:32:45;16.90;99.90
13464;DHT22;6804;48.774;9.174;2022-10-28T08:35:13;16.90;99.90
13464;DHT22;6804;48.774;9.174;2022-10-28T08:37:40;16.90;99.90
13464;DHT22;6804;48.774;9.174;2022-10-28T08:40:14;16.90;99.90
13464;DHT22;6804;48.774;9.174;2022-10-28T08:42:45;16.90;99.90
13464;DHT22;6804;48.774;9.174;2022-10-28T08:45:19;16.90;99.90
13464;DHT22;6804;48.774;9.174;2022-10-28T08:48:00;16.90;99.90
13464;DHT22;6804;48.774;9.174;2022-10-28T08:50:42;17.00;99.90
13464;DHT22;6804;48.774;9.174;2022-10-28T08:53:14;17.00;99.90
13464;DHT22;6804;48.774;9.174;2022-10-28T08:55:44;17.00;99.90
13464;DHT22;6804;48.774;9.174;2022-10-28T08:58:17;17.00;99.90
13464;DHT22;6804;48.774;9.174;2022-10-28T09:00:51;17.00;99.90
13464;DHT22;6804;48.774;9.174;2022-10-28T09:03:24;17.10;99.90
13464;DHT22;6804;48.774;9.174;2022-10-28T09:05:56;17.20;99.90
13464;DHT22;6804;48.774;9.174;2022-10-28T09:08:28;17.30;99.90
13464;DHT22;6804;48.774;9.174;2022-10-28T09:11:37;17.40;99.90
13464;DHT22;6804;48.774;9.174;2022-10-28T09:14:30;17.50;99.90
13464;DHT22;6804;48.774;9.174;2022-10-28T09:17:17;17.60;99.90
13464;DHT22;6804;48.774;9.174;2022-10-28T09:19:51;17.60;99.90
13464;DHT22;6804;48.774;9.174;2022-10-28T09:22:24;17.70;99.90
13464;DHT22;6804;48.774;9.174;2022-10-28T09:25:00;17.80;99.90
13464;DHT22;6804;48.774;9.174;2022-10-28T09:27:51;17.70;99.90
13464;DHT22;6804;48.774;9.174;2022-10-28T09:30:34;17.60;99.90
13464;DHT22;6804;48.774;9.174;2022-10-28T09:33:20;17.40;99.90
13464;DHT22;6804;48.774;9.174;2022-10-28T09:35:56;17.30;99.90
13464;DHT22;6804;48.774;9.174;2022-10-28T09:38:27;17.30;99.90
13464;DHT22;6804;48.774;9.174;2022-10-28T09:40:58;17.20;99.90
13464;DHT22;6804;48.774;9.174;2022-10-28T09:43:30;17.30;99.90
13464;DHT22;6804;48.774;9.174;2022-10-28T09:46:02;17.40;99.90
13464;DHT22;6804;48.774;9.174;2022-10-28T09:48:36;17.40;99.90
13464;DHT22;6804;48.774;9.174;2022-10-28T09:51:20;17.50;99.90
13464;DHT22;6804;48.774;9.174;2022-10-28T09:53:56;17.60;99.90
13464;DHT22;6804;48.774;9.174;2022-10-28T09:56:25;17.70;99.90
13464;DHT22;6804;48.774;9.174;2022-10-28T09:58:58;17.90;99.90
13464;DHT22;6804;48.774;9.174;2022-10-28T10:01:31;18.10;99.90
13464;DHT22;6804;48.774;9.174;2022-10-28T10:03:59;18.30;99.90
13464;DHT22;6804;48.774;9.174;2022-10-28T10:06:32;18.60;99.90
13464;DHT22;6804;48.774;9.174;2022-10-28T10:09:03;18.90;99.90
13464;DHT22;6804;48.774;9.174;2022-10-28T10:11:35;19.00;99.90
13464;DHT22;6804;48.774;9.174;2022-10-28T10:14:10;19.20;99.90
13464;DHT22;6804;48.774;9.174;2022-10-28T10:16:41;19.30;99.90
13464;DHT22;6804;48.774;9.174;2022-10-28T10:19:15;19.40;99.90
13464;DHT22;6804;48.774;9.174;2022-10-28T10:21:48;19.50;99.90
13464;DHT22;6804;48.774;9.174;2022-10-28T10:24:36;19.60;99.90
13464;DHT22;6804;48.774;9.174;2022-10-28T10:27:16;19.60;99.90
13464;DHT22;6804;48.774;9.174;2022-10-28T10:29:47;19.70;99.90
13464;DHT22;6804;48.774;9.174;2022-10-28T10:32:20;19.60;99.90
13464;DHT22;6804;48.774;9.174;2022-10-28T10:34:55;19.50;99.90
13464;DHT22;6804;48.774;9.174;2022-10-28T10:37:27;19.50;99.90
13464;DHT22;6804;48.774;9.174;2022-10-28T10:40:05;19.50;99.90
13464;DHT22;6804;48.774;9.174;2022-10-28T10:42:35;19.50;99.90
13464;DHT22;6804;48.774;9.174;2022-10-28T10:45:20;19.50;99.90
13464;DHT22;6804;48.774;9.174;2022-10-28T10:47:47;19.70;99.90
13464;DHT22;6804;48.774;9.174;2022-10-28T10:50:26;19.80;99.90
13464;DHT22;6804;48.774;9.174;2022-10-28T10:52:58;19.90;99.90
13464;DHT22;6804;48.774;9.174;2022-10-28T10:55:34;20.00;99.90
13464;DHT22;6804;48.774;9.174;2022-10-28T10:58:13;19.90;99.90
13464;DHT22;6804;48.774;9.174;2022-10-28T11:00:48;19.90;99.90
13464;DHT22;6804;48.774;9.174;2022-10-28T11:03:21;19.90;99.90
13464;DHT22;6804;48.774;9.174;2022-10-28T11:05:52;19.90;99.90
13464;DHT22;6804;48.774;9.174;2022-10-28T11:08:40;19.90;99.90
13464;DHT22;6804;48.774;9.174;2022-10-28T11:11:19;20.00;99.90
13464;DHT22;6804;48.774;9.174;2022-10-28T11:13:48;20.10;99.90
13464;DHT22;6804;48.774;9.174;2022-10-28T11:16:28;20.10;99.90
13464;DHT22;6804;48.774;9.174;2022-10-28T11:18:55;20.20;99.90
13464;DHT22;6804;48.774;9.174;2022-10-28T11:21:44;20.20;99.90
13464;DHT22;6804;48.774;9.174;2022-10-28T11:27:18;20.40;99.90
13464;DHT22;6804;48.774;9.174;2022-10-28T11:29:50;20.40;99.90
13464;DHT22;6804;48.774;9.174;2022-10-28T11:32:34;20.40;99.90
13464;DHT22;6804;48.774;9.174;2022-10-28T11:35:29;20.40;99.90
13464;DHT22;6804;48.774;9.174;2022-10-28T11:38:06;20.30;99.90
13464;DHT22;6804;48.774;9.174;2022-10-28T11:40:46;20.40;99.90
13464;DHT22;6804;48.774;9.174;2022-10-28T11:43:25;20.30;99.90
13464;DHT22;6804;48.774;9.174;2022-10-28T11:46:02;20.30;99.90
13464;DHT22;6804;48.774;9.174;2022-10-28T11:48:53;20.30;99.90
13464;DHT22;6804;48.774;9.174;2022-10-28T11:51:31;20.30;99.90
13464;DHT22;6804;48.774;9.174;2022-10-28T11:54:22;20.30;99.90
13464;DHT22;6804;48.774;9.174;2022-10-28T11:57:02;20.30;99.90
13464;DHT22;6804;48.774;9.174;2022-10-28T11:59:55;20.30;99.90
13464;DHT22;6804;48.774;9.174;2022-10-28T12:02:53;20.40;99.90
13464;DHT22;6804;48.774;9.174;2022-10-28T12:05:29;20.50;99.90
13464;DHT22;6804;48.774;9.174;2022-10-28T12:08:26;20.60;99.90
13464;DHT22;6804;48.774;9.174;2022-10-28T12:11:07;20.60;99.90
13464;DHT22;6804;48.774;9.174;2022-10-28T12:13:55;20.70;99.90
13464;DHT22;6804;48.774;9.174;2022-10-28T12:16:32;20.70;99.90
13464;DHT22;6804;48.774;9.174;2022-10-28T12:19:04;20.80;99.90
13464;DHT22;6804;48.774;9.174;2022-10-28T12:21:38;20.80;99.90
13464;DHT22;6804;48.774;9.174;2022-10-28T12:24:13;20.90;99.90
13464;DHT22;6804;48.774;9.174;2022-10-28T12:26:44;21.10;99.90
13464;DHT22;6804;48.774;9.174;2022-10-28T12:29:19;21.30;99.90
13464;DHT22;6804;48.774;9.174;2022-10-28T12:31:53;21.40;99.90
13464;DHT22;6804;48.774;9.174;2022-10-28T12:34:27;21.50;99.90
13464;DHT22;6804;48.774;9.174;2022-10-28T12:37:00;21.60;99.90
13464;DHT22;6804;48.774;9.174;2022-10-28T12:39:32;21.80;99.90
13464;DHT22;6804;48.774;9.174;2022-10-28T12:42:04;21.90;99.90
13464;DHT22;6804;48.774;9.174;2022-10-28T12:44:41;21.90;99.90
13464;DHT22;6804;48.774;9.174;2022-10-28T12:47:18;21.70;99.90
13464;DHT22;6804;48.774;9.174;2022-10-28T12:50:01;21.70;99.90
13464;DHT22;6804;48.774;9.174;2022-10-28T12:52:37;21.80;99.90
13464;DHT22;6804;48.774;9.174;2022-10-28T12:58:05;22.20;99.90
13464;DHT22;6804;48.774;9.174;2022-10-28T13:00:42;22.40;99.90
13464;DHT22;6804;48.774;9.174;2022-10-28T13:03:11;22.50;99.90
13464;DHT22;6804;48.774;9.174;2022-10-28T13:05:45;22.60;99.90
13464;DHT22;6804;48.774;9.174;2022-10-28T13:08:45;22.70;99.90
13464;DHT22;6804;48.774;9.174;2022-10-28T13:14:53;23.00;99.90
13464;DHT22;6804;48.774;9.174;2022-10-28T13:17:38;23.10;99.90
13464;DHT22;6804;48.774;9.174;2022-10-28T13:20:19;23.20;99.90
13464;DHT22;6804;48.774;9.174;2022-10-28T13:23:03;23.20;99.90
13464;DHT22;6804;48.774;9.174;2022-10-28T13:25:55;23.30;99.90
13464;DHT22;6804;48.774;9.174;2022-10-28T13:28:27;23.10;99.90
13464;DHT22;6804;48.774;9.174;2022-10-28T13:30:58;23.00;99.90
13464;DHT22;6804;48.774;9.174;2022-10-28T13:33:33;23.10;99.90
13464;DHT22;6804;48.774;9.174;2022-10-28T13:36:15;23.20;99.90
13464;DHT22;6804;48.774;9.174;2022-10-28T13:38:49;23.20;99.90
13464;DHT22;6804;48.774;9.174;2022-10-28T13:41:33;23.20;99.90
13464;DHT22;6804;48.774;9.174;2022-10-28T13:44:23;23.20;99.90
13464;DHT22;6804;48.774;9.174;2022-10-28T13:56:19;23.10;99.90
13464;DHT22;6804;48.774;9.174;2022-10-28T13:58:51;22.90;99.90
13464;DHT22;6804;48.774;9.174;2022-10-28T14:01:51;22.70;99.90
13464;DHT22;6804;48.774;9.174;2022-10-28T14:04:34;22.60;99.90
13464;DHT22;6804;48.774;9.174;2022-10-28T14:07:17;22.50;99.90
13464;DHT22;6804;48.774;9.174;2022-10-28T14:09:54;22.50;99.90
13464;DHT22;6804;48.774;9.174;2022-10-28T14:12:30;22.50;99.90
13464;DHT22;6804;48.774;9.174;2022-10-28T14:15:03;22.50;99.90
13464;DHT22;6804;48.774;9.174;2022-10-28T14:17:37;22.60;99.90
13464;DHT22;6804;48.774;9.174;2022-10-28T14:20:18;22.60;99.90
13464;DHT22;6804;48.774;9.174;2022-10-28T14:22:52;22.60;99.90
13464;DHT22;6804;48.774;9.174;2022-10-28T14:28:53;22.40;99.90
13464;DHT22;6804;48.774;9.174;2022-10-28T14:31:42;22.30;99.90
13464;DHT22;6804;48.774;9.174;2022-10-28T14:34:42;22.30;99.90
13464;DHT22;6804;48.774;9.174;2022-10-28T14:37:33;22.20;99.90
13464;DHT22;6804;48.774;9.174;2022-10-28T14:40:30;22.30;99.90
13464;DHT22;6804;48.774;9.174;2022-10-28T14:43:15;22.30;99.90
13464;DHT22;6804;48.774;9.174;2022-10-28T14:46:01;22.30;99.90
13464;DHT22;6804;48.774;9.174;2022-10-28T14:48:44;22.30;99.90
13464;DHT22;6804;48.774;9.174;2022-10-28T14:51:17;22.30;99.90
13464;DHT22;6804;48.774;9.174;2022-10-28T14:53:56;22.30;99.90
13464;DHT22;6804;48.774;9.174;2022-10-28T14:56:28;22.40;99.90
13464;DHT22;6804;48.774;9.174;2022-10-28T14:59:02;22.30;99.90
13464;DHT22;6804;48.774;9.174;2022-10-28T15:01:38;22.20;99.90
13464;DHT22;6804;48.774;9.174;2022-10-28T15:04:15;22.20;99.90
13464;DHT22;6804;48.774;9.174;2022-10-28T15:06:49;22.20;99.90
13464;DHT22;6804;48.774;9.174;2022-10-28T15:09:21;22.20;99.90
13464;DHT22;6804;48.774;9.174;2022-10-28T15:11:53;22.10;99.90
13464;DHT22;6804;48.774;9.174;2022-10-28T15:14:31;22.10;99.90
13464;DHT22;6804;48.774;9.174;2022-10-28T15:17:05;22.10;99.90
13464;DHT22;6804;48.774;9.174;2022-10-28T15:19:43;22.10;99.90
13464;DHT22;6804;48.774;9.174;2022-10-28T15:22:15;22.10;99.90
13464;DHT22;6804;48.774;9.174;2022-10-28T15:24:56;22.10;99.90
13464;DHT22;6804;48.774;9.174;2022-10-28T15:27:28;22.10;99.90
13464;DHT22;6804;48.774;9.174;2022-10-28T15:29:55;22.10;99.90
13464;DHT22;6804;48.774;9.174;2022-10-28T15:32:32;22.10;99.90
13464;DHT22;6804;48.774;9.174;2022-10-28T15:35:34;22.20;99.90
13464;DHT22;6804;48.774;9.174;2022-10-28T15:38:24;22.20;99.90
13464;DHT22;6804;48.774;9.174;2022-10-28T15:40:52;22.10;99.90
13464;DHT22;6804;48.774;9.174;2022-10-28T15:43:28;22.20;99.90
13464;DHT22;6804;48.774;9.174;2022-10-28T15:46:08;22.20;99.90
13464;DHT22;6804;48.774;9.174;2022-10-28T15:48:36;22.10;99.90
13464;DHT22;6804;48.774;9.174;2022-10-28T15:51:11;22.10;99.90
13464;DHT22;6804;48.774;9.174;2022-10-28T15:53:40;22.20;99.90
13464;DHT22;6804;48.774;9.174;2022-10-28T15:56:18;22.10;99.90
13464;DHT22;6804;48.774;9.174;2022-10-28T15:59:00;22.20;99.90
13464;DHT22;6804;48.774;9.174;2022-10-28T16:01:36;22.20;99.90
13464;DHT22;6804;48.774;9.174;2022-10-28T16:04:41;22.10;99.90
13464;DHT22;6804;48.774;9.174;2022-10-28T16:07:13;22.00;99.90
13464;DHT22;6804;48.774;9.174;2022-10-28T16:09:46;21.90;99.90
13464;DHT22;6804;48.774;9.174;2022-10-28T16:12:16;21.90;99.90
13464;DHT22;6804;48.774;9.174;2022-10-28T16:14:53;21.80;99.90
13464;DHT22;6804;48.774;9.174;2022-10-28T16:17:25;21.80;99.90
13464;DHT22;6804;48.774;9.174;2022-10-28T16:19:58;21.70;99.90
13464;DHT22;6804;48.774;9.174;2022-10-28T16:22:28;21.60;99.90
13464;DHT22;6804;48.774;9.174;2022-10-28T16:24:59;21.60;99.90
13464;DHT22;6804;48.774;9.174;2022-10-28T16:27:27;21.60;99.90
13464;DHT22;6804;48.774;9.174;2022-10-28T16:29:57;21.50;99.90
13464;DHT22;6804;48.774;9.174;2022-10-28T16:32:30;21.50;99.90
13464;DHT22;6804;48.774;9.174;2022-10-28T16:35:02;21.50;99.90
13464;DHT22;6804;48.774;9.174;2022-10-28T16:37:31;21.50;99.90
13464;DHT22;6804;48.774;9.174;2022-10-28T16:40:00;21.50;99.90
13464;DHT22;6804;48.774;9.174;2022-10-28T16:42:27;21.50;99.90
13464;DHT22;6804;48.774;9.174;2022-10-28T16:44:59;21.50;99.90
13464;DHT22;6804;48.774;9.174;2022-10-28T16:47:29;21.50;99.90
13464;DHT22;6804;48.774;9.174;2022-10-28T16:49:56;21.50;99.90
13464;DHT22;6804;48.774;9.174;2022-10-28T16:52:26;21.60;99.90
13464;DHT22;6804;48.774;9.174;2022-10-28T16:54:57;21.70;99.90
13464;DHT22;6804;48.774;9.174;2022-10-28T16:57:28;21.60;99.90